createdAt,value
2018-03-14T00:00:46.850Z,21.50
2018-03-14T00:01:46.806Z,24.00
2018-03-14T00:02:46.790Z,23.90
2018-03-14T00:03:46.768Z,22.70
2018-03-14T00:04:46.751Z,23.50
2018-03-14T00:05:46.734Z,25.00
2018-03-14T00:06:46.733Z,25.20
2018-03-14T00:07:46.698Z,23.10
2018-03-14T00:08:46.680Z,24.20
2018-03-14T00:09:46.662Z,22.80
2018-03-14T00:10:46.660Z,23.60
2018-03-14T00:11:46.627Z,24.50
2018-03-14T00:12:46.620Z,22.00
2018-03-14T00:13:46.591Z,22.00
2018-03-14T00:14:46.572Z,24.40
2018-03-14T00:15:46.556Z,21.60
2018-03-14T00:16:46.537Z,25.70
2018-03-14T00:17:46.534Z,25.60
2018-03-14T00:18:46.499Z,25.10
2018-03-14T00:19:46.479Z,23.40
2018-03-14T00:20:46.475Z,24.10
2018-03-14T00:21:46.444Z,25.30
2018-03-14T00:23:07.438Z,22.80
2018-03-14T00:23:46.409Z,23.80
2018-03-14T00:24:46.388Z,24.80
2018-03-14T00:25:46.372Z,24.80
2018-03-14T00:26:46.366Z,25.40
2018-03-14T00:27:46.335Z,23.50
2018-03-14T00:28:46.332Z,24.20
2018-03-14T00:29:46.297Z,26.90
2018-03-14T00:30:46.281Z,24.70
2018-03-14T00:31:46.258Z,23.00
2018-03-14T00:32:46.244Z,25.40
2018-03-14T00:33:46.240Z,26.60
2018-03-14T00:34:46.208Z,27.60
2018-03-14T00:35:46.190Z,29.70
2018-03-14T00:36:46.170Z,28.90
2018-03-14T00:37:46.170Z,30.70
2018-03-14T00:38:46.145Z,26.90
2018-03-14T00:39:46.118Z,29.40
2018-03-14T00:40:46.097Z,29.90
2018-03-14T00:41:46.081Z,31.60
2018-03-14T00:42:46.061Z,34.20
2018-03-14T00:43:46.058Z,29.80
2018-03-14T00:44:46.024Z,30.70
2018-03-14T00:45:46.010Z,31.70
2018-03-14T00:46:45.990Z,31.70
2018-03-14T00:47:45.985Z,30.80
2018-03-14T00:48:45.948Z,30.10
2018-03-14T00:49:45.947Z,31.60
2018-03-14T00:50:45.915Z,29.90
2018-03-14T00:51:45.892Z,31.10
2018-03-14T00:52:45.879Z,33.30
2018-03-14T00:53:45.876Z,40.20
2018-03-14T00:54:45.845Z,31.30
2018-03-14T00:55:45.839Z,30.00
2018-03-14T00:56:45.806Z,32.40
2018-03-14T00:57:45.789Z,29.30
2018-03-14T00:58:45.800Z,32.40
2018-03-14T00:59:45.747Z,31.50
2018-03-14T01:00:45.770Z,30.20
2018-03-14T01:01:45.717Z,33.50
2018-03-14T01:02:45.699Z,36.20
2018-03-14T01:03:45.680Z,33.90
2018-03-14T01:04:45.663Z,33.70
2018-03-14T01:05:45.644Z,32.20
2018-03-14T01:06:45.642Z,35.80
2018-03-14T01:07:45.605Z,34.30
2018-03-14T01:08:45.588Z,37.00
2018-03-14T01:09:45.572Z,42.40
2018-03-14T01:10:45.569Z,38.10
2018-03-14T01:11:45.546Z,36.60
2018-03-14T01:12:45.517Z,36.20
2018-03-14T01:13:45.497Z,36.10
2018-03-14T01:14:45.479Z,35.90
2018-03-14T01:15:45.462Z,34.80
2018-03-14T01:16:45.457Z,35.60
2018-03-14T01:17:45.461Z,38.90
2018-03-14T01:18:45.409Z,36.60
2018-03-14T01:19:45.389Z,35.90
2018-03-14T01:20:45.365Z,37.60
2018-03-14T01:21:45.368Z,34.80
2018-03-14T01:22:45.335Z,33.40
2018-03-14T01:23:45.311Z,34.00
2018-03-14T01:24:45.305Z,32.40
2018-03-14T01:25:45.281Z,34.00
2018-03-14T01:26:45.280Z,38.30
2018-03-14T01:27:45.241Z,37.40
2018-03-14T01:28:45.224Z,37.80
2018-03-14T01:29:45.213Z,39.50
2018-03-14T01:30:45.189Z,36.60
2018-03-14T01:31:45.171Z,35.80
2018-03-14T01:32:45.165Z,40.20
2018-03-14T01:33:45.133Z,40.00
2018-03-14T01:34:45.119Z,37.70
2018-03-14T01:35:45.098Z,36.60
2018-03-14T01:36:45.078Z,37.90
2018-03-14T01:37:45.077Z,41.10
2018-03-14T01:38:45.043Z,41.10
2018-03-14T01:39:45.023Z,40.70
2018-03-14T01:40:45.009Z,41.70
2018-03-14T01:41:44.994Z,37.60
2018-03-14T01:42:44.990Z,38.90
2018-03-14T01:43:44.953Z,39.40
2018-03-14T01:44:44.935Z,40.30
2018-03-14T01:45:44.918Z,37.00
2018-03-14T01:46:44.900Z,39.30
2018-03-14T01:47:44.896Z,35.10
2018-03-14T01:48:44.865Z,39.10
2018-03-14T01:49:44.846Z,41.30
2018-03-14T01:50:44.826Z,42.00
2018-03-14T01:51:44.809Z,40.20
2018-03-14T01:52:44.787Z,40.90
2018-03-14T01:54:05.884Z,42.60
2018-03-14T01:54:44.755Z,39.60
2018-03-14T01:55:44.736Z,39.10
2018-03-14T01:56:44.723Z,43.00
2018-03-14T01:57:44.701Z,42.10
2018-03-14T01:58:44.700Z,47.90
2018-03-14T01:59:44.666Z,41.70
2018-03-14T02:00:44.649Z,42.10
2018-03-14T02:01:44.629Z,38.80
2018-03-14T02:02:44.611Z,39.20
2018-03-14T02:03:44.608Z,44.50
2018-03-14T02:04:44.574Z,43.50
2018-03-14T02:05:44.559Z,42.80
2018-03-14T02:06:44.539Z,39.30
2018-03-14T02:07:44.522Z,42.10
2018-03-14T02:08:44.517Z,42.80
2018-03-14T02:09:44.499Z,46.20
2018-03-14T02:10:44.482Z,40.40
2018-03-14T02:11:44.448Z,38.00
2018-03-14T02:12:44.430Z,39.80
2018-03-14T02:13:44.413Z,43.40
2018-03-14T02:14:44.394Z,43.70
2018-03-14T02:15:44.392Z,44.40
2018-03-14T02:16:44.359Z,44.50
2018-03-14T02:17:44.341Z,42.30
2018-03-14T02:18:44.325Z,44.50
2018-03-14T02:19:44.325Z,42.90
2018-03-14T02:20:44.285Z,41.90
2018-03-14T02:21:44.266Z,43.80
2018-03-14T02:22:44.252Z,43.30
2018-03-14T02:23:44.235Z,43.30
2018-03-14T02:24:44.211Z,45.10
2018-03-14T02:25:44.214Z,44.50
2018-03-14T02:26:44.179Z,45.20
2018-03-14T02:27:44.155Z,45.50
2018-03-14T02:28:44.140Z,44.00
2018-03-14T02:29:44.126Z,45.60
2018-03-14T02:30:44.141Z,44.90
2018-03-14T02:31:44.086Z,42.20
2018-03-14T02:32:44.067Z,40.20
2018-03-14T02:33:44.057Z,38.90
2018-03-14T02:34:44.033Z,43.30
2018-03-14T02:35:44.015Z,41.10
2018-03-14T02:36:44.014Z,42.80
2018-03-14T02:37:43.995Z,45.00
2018-03-14T02:38:43.964Z,44.50
2018-03-14T02:39:43.946Z,45.30
2018-03-14T02:40:43.926Z,47.10
2018-03-14T02:41:43.930Z,44.90
2018-03-14T02:42:43.887Z,46.80
2018-03-14T02:43:43.875Z,45.60
2018-03-14T02:44:43.856Z,44.00
2018-03-14T02:45:43.855Z,41.40
2018-03-14T02:46:43.818Z,41.50
2018-03-14T02:47:43.801Z,39.20
2018-03-14T02:48:43.787Z,39.70
2018-03-14T02:49:43.766Z,40.50
2018-03-14T02:50:43.745Z,39.80
2018-03-14T02:51:43.746Z,40.90
2018-03-14T02:52:43.728Z,43.40
2018-03-14T02:53:43.696Z,42.10
2018-03-14T02:54:43.679Z,45.60
2018-03-14T02:55:43.662Z,41.10
2018-03-14T02:56:43.651Z,38.70
2018-03-14T02:57:43.621Z,41.10
2018-03-14T02:58:43.610Z,40.90
2018-03-14T02:59:43.588Z,39.80
2018-03-14T03:00:43.568Z,39.70
2018-03-14T03:01:43.565Z,41.10
2018-03-14T03:02:43.533Z,46.00
2018-03-14T03:03:43.518Z,44.70
2018-03-14T03:04:43.497Z,42.00
2018-03-14T03:05:43.480Z,43.80
2018-03-14T03:06:43.481Z,45.00
2018-03-14T03:07:43.439Z,44.40
2018-03-14T03:08:43.425Z,41.30
2018-03-14T03:09:43.408Z,40.50
2018-03-14T03:10:43.427Z,41.50
2018-03-14T03:11:43.375Z,39.00
2018-03-14T03:12:43.366Z,37.70
2018-03-14T03:13:43.333Z,40.50
2018-03-14T03:14:43.320Z,43.80
2018-03-14T03:15:43.300Z,38.70
2018-03-14T03:16:43.313Z,41.80
2018-03-14T03:17:43.269Z,41.20
2018-03-14T03:18:43.247Z,43.40
2018-03-14T03:19:43.231Z,41.30
2018-03-14T03:20:43.212Z,45.20
2018-03-14T03:21:43.193Z,40.80
2018-03-14T03:22:43.191Z,43.60
2018-03-14T03:23:43.159Z,42.00
2018-03-14T03:24:43.140Z,42.10
2018-03-14T03:25:43.122Z,44.20
2018-03-14T03:26:43.106Z,49.20
2018-03-14T03:27:43.100Z,45.40
2018-03-14T03:28:43.072Z,46.10
2018-03-14T03:29:43.050Z,49.40
2018-03-14T03:30:43.038Z,45.90
2018-03-14T03:31:43.019Z,45.30
2018-03-14T03:32:43.018Z,45.20
2018-03-14T03:33:42.980Z,49.00
2018-03-14T03:34:42.966Z,46.50
2018-03-14T03:35:42.945Z,49.70
2018-03-14T03:36:42.928Z,49.90
2018-03-14T03:37:42.912Z,49.40
2018-03-14T03:38:42.912Z,47.80
2018-03-14T03:39:42.876Z,49.70
2018-03-14T03:40:42.857Z,46.90
2018-03-14T03:41:42.843Z,44.80
2018-03-14T03:42:42.824Z,44.70
2018-03-14T03:43:42.820Z,48.20
2018-03-14T03:44:42.789Z,45.70
2018-03-14T03:45:42.767Z,48.90
2018-03-14T03:46:42.751Z,48.70
2018-03-14T03:47:42.736Z,49.10
2018-03-14T03:48:42.731Z,48.80
2018-03-14T03:49:42.698Z,47.10
2018-03-14T03:50:42.682Z,48.20
2018-03-14T03:51:42.664Z,49.80
2018-03-14T03:52:42.647Z,48.80
2018-03-14T03:53:42.646Z,47.80
2018-03-14T03:54:42.612Z,44.60
2018-03-14T03:55:42.608Z,48.10
2018-03-14T03:56:42.574Z,45.70
2018-03-14T03:57:42.559Z,46.60
2018-03-14T03:58:42.557Z,46.10
2018-03-14T03:59:42.519Z,47.80
2018-03-14T04:00:42.554Z,48.00
2018-03-14T04:01:42.491Z,46.80
2018-03-14T04:02:42.470Z,47.60
2018-03-14T04:03:42.464Z,49.00
2018-03-14T04:04:42.436Z,52.80
2018-03-14T04:05:42.421Z,50.10
2018-03-14T04:06:42.400Z,51.10
2018-03-14T04:07:42.396Z,47.60
2018-03-14T04:08:42.368Z,51.40
2018-03-14T04:09:42.352Z,53.70
2018-03-14T04:10:42.345Z,54.90
2018-03-14T04:11:42.309Z,50.80
2018-03-14T04:12:42.298Z,50.70
2018-03-14T04:13:42.279Z,50.50
2018-03-14T04:14:42.265Z,52.40
2018-03-14T04:15:42.261Z,50.90
2018-03-14T04:16:42.226Z,50.20
2018-03-14T04:17:42.209Z,53.20
2018-03-14T04:18:42.191Z,52.00
2018-03-14T04:19:42.173Z,51.50
2018-03-14T04:20:42.171Z,52.00
2018-03-14T04:21:42.158Z,54.00
2018-03-14T04:22:42.138Z,54.90
2018-03-14T04:23:42.104Z,55.20
2018-03-14T04:24:42.086Z,53.60
2018-03-14T04:25:42.068Z,55.20
2018-03-14T04:26:42.051Z,53.20
2018-03-14T04:27:42.034Z,52.70
2018-03-14T04:28:42.032Z,57.50
2018-03-14T04:29:41.996Z,52.90
2018-03-14T04:30:41.982Z,54.30
2018-03-14T04:31:41.966Z,55.00
2018-03-14T04:32:41.979Z,51.40
2018-03-14T04:33:41.929Z,53.10
2018-03-14T04:34:41.909Z,53.80
2018-03-14T04:35:41.890Z,53.70
2018-03-14T04:36:41.873Z,54.40
2018-03-14T04:37:41.858Z,56.20
2018-03-14T04:38:41.860Z,53.90
2018-03-14T04:39:41.822Z,55.90
2018-03-14T04:40:41.802Z,53.20
2018-03-14T04:41:41.783Z,54.50
2018-03-14T04:42:41.783Z,52.30
2018-03-14T04:43:41.749Z,54.20
2018-03-14T04:44:41.729Z,56.50
2018-03-14T04:45:41.714Z,55.20
2018-03-14T04:46:41.695Z,53.80
2018-03-14T04:47:41.692Z,55.60
2018-03-14T04:48:41.659Z,54.80
2018-03-14T04:49:41.642Z,54.60
2018-03-14T04:50:41.622Z,60.10
2018-03-14T04:51:41.605Z,56.10
2018-03-14T04:52:41.603Z,57.10
2018-03-14T04:53:41.570Z,56.40
2018-03-14T04:54:41.552Z,55.60
2018-03-14T04:55:41.534Z,62.90
2018-03-14T04:56:41.516Z,57.50
2018-03-14T04:57:41.513Z,57.80
2018-03-14T04:58:41.504Z,56.00
2018-03-14T04:59:41.465Z,58.90
2018-03-14T05:00:41.447Z,55.90
2018-03-14T05:01:41.430Z,64.40
2018-03-14T05:02:41.429Z,63.10
2018-03-14T05:03:41.410Z,60.20
2018-03-14T05:04:41.378Z,63.20
2018-03-14T05:05:41.356Z,63.80
2018-03-14T05:06:41.341Z,64.90
2018-03-14T05:07:41.323Z,63.10
2018-03-14T05:08:41.301Z,63.70
2018-03-14T05:09:41.301Z,63.30
2018-03-14T05:10:41.265Z,64.20
2018-03-14T05:11:41.249Z,67.30
2018-03-14T05:12:41.231Z,66.60
2018-03-14T05:13:41.229Z,67.30
2018-03-14T05:14:41.216Z,69.00
2018-03-14T05:15:41.192Z,61.90
2018-03-14T05:16:41.162Z,65.20
2018-03-14T05:17:41.143Z,67.60
2018-03-14T05:18:41.125Z,69.30
2018-03-14T05:19:41.118Z,67.40
2018-03-14T05:20:41.087Z,62.20
2018-03-14T05:21:41.069Z,64.50
2018-03-14T05:22:41.052Z,59.40
2018-03-14T05:23:41.052Z,59.10
2018-03-14T05:24:41.019Z,55.80
2018-03-14T05:25:40.999Z,54.00
2018-03-14T05:26:41.036Z,55.00
2018-03-14T05:27:40.965Z,53.80
2018-03-14T05:28:40.946Z,57.30
2018-03-14T05:29:40.942Z,54.80
2018-03-14T05:30:40.930Z,55.90
2018-03-14T05:31:40.891Z,54.70
2018-03-14T05:32:40.872Z,59.10
2018-03-14T05:33:40.857Z,55.40
2018-03-14T05:34:40.835Z,59.20
2018-03-14T05:35:40.822Z,57.40
2018-03-14T05:36:40.816Z,61.20
2018-03-14T05:37:40.784Z,59.60
2018-03-14T05:38:40.766Z,61.80
2018-03-14T05:39:40.764Z,64.40
2018-03-14T05:40:40.730Z,63.70
2018-03-14T05:41:40.711Z,60.80
2018-03-14T05:42:40.694Z,64.60
2018-03-14T05:43:40.674Z,63.70
2018-03-14T05:44:40.668Z,63.80
2018-03-14T05:45:40.638Z,64.30
2018-03-14T05:46:40.620Z,61.90
2018-03-14T05:47:40.601Z,59.20
2018-03-14T05:48:40.584Z,65.30
2018-03-14T05:49:40.585Z,60.60
2018-03-14T05:50:40.548Z,60.60
2018-03-14T05:51:40.532Z,65.30
2018-03-14T05:52:40.510Z,69.70
2018-03-14T05:53:40.501Z,69.90
2018-03-14T05:54:40.490Z,71.70
2018-03-14T05:55:40.456Z,76.00
2018-03-14T05:56:40.456Z,81.70
2018-03-14T05:57:40.419Z,74.30
2018-03-14T05:58:40.401Z,65.80
2018-03-14T05:59:40.427Z,80.40
2018-03-14T06:00:40.368Z,75.80
2018-03-14T06:01:40.362Z,69.60
2018-03-14T06:02:40.331Z,69.60
2018-03-14T06:03:40.311Z,67.20
2018-03-14T06:04:40.292Z,71.00
2018-03-14T06:05:40.275Z,75.10
2018-03-14T06:07:01.269Z,72.70
2018-03-14T06:07:40.241Z,80.10
2018-03-14T06:08:40.219Z,71.00
2018-03-14T06:09:40.219Z,64.10
2018-03-14T06:10:40.187Z,69.50
2018-03-14T06:11:40.180Z,69.40
2018-03-14T06:12:40.146Z,71.50
2018-03-14T06:13:40.126Z,75.30
2018-03-14T06:14:40.110Z,75.30
2018-03-14T06:15:40.090Z,79.00
2018-03-14T06:16:40.092Z,81.90
2018-03-14T06:17:40.056Z,79.80
2018-03-14T06:18:40.037Z,70.20
2018-03-14T06:19:40.015Z,64.50
2018-03-14T06:20:40.003Z,64.00
2018-03-14T06:21:40.008Z,67.40
2018-03-14T06:22:39.964Z,68.70
2018-03-14T06:23:39.949Z,77.70
2018-03-14T06:24:39.923Z,77.50
2018-03-14T06:25:39.909Z,77.10
2018-03-14T06:26:39.902Z,83.50
2018-03-14T06:27:39.887Z,92.40
2018-03-14T06:28:39.849Z,85.40
2018-03-14T06:29:39.831Z,82.70
2018-03-14T06:30:39.818Z,81.20
2018-03-14T06:31:39.810Z,80.80
2018-03-14T06:32:39.794Z,89.40
2018-03-14T06:33:39.776Z,96.70
2018-03-14T06:34:39.797Z,82.10
2018-03-14T06:35:39.729Z,71.00
2018-03-14T06:36:39.705Z,58.70
2018-03-14T06:37:39.701Z,57.40
2018-03-14T06:38:39.673Z,56.50
2018-03-14T06:39:39.659Z,57.20
2018-03-14T06:40:39.631Z,59.80
2018-03-14T06:41:39.616Z,61.90
2018-03-14T06:42:39.620Z,65.70
2018-03-14T06:43:39.575Z,58.00
2018-03-14T06:44:39.554Z,62.60
2018-03-14T06:45:39.541Z,57.80
2018-03-14T06:46:39.521Z,58.50
2018-03-14T06:47:39.505Z,59.10
2018-03-14T06:48:39.500Z,58.50
2018-03-14T06:49:39.478Z,62.10
2018-03-14T06:50:39.441Z,59.70
2018-03-14T06:51:39.422Z,61.80
2018-03-14T06:52:39.411Z,59.70
2018-03-14T06:53:39.404Z,61.80
2018-03-14T06:54:39.375Z,56.00
2018-03-14T06:55:39.352Z,60.70
2018-03-14T06:56:39.334Z,62.90
2018-03-14T06:57:39.320Z,63.80
2018-03-14T06:58:39.312Z,62.00
2018-03-14T06:59:39.278Z,59.70
2018-03-14T07:00:39.259Z,60.10
2018-03-14T07:01:39.240Z,60.90
2018-03-14T07:02:39.226Z,58.90
2018-03-14T07:03:39.202Z,58.40
2018-03-14T07:04:39.198Z,63.20
2018-03-14T07:05:39.163Z,60.10
2018-03-14T07:06:39.147Z,60.50
2018-03-14T07:07:39.141Z,64.20
2018-03-14T07:08:39.109Z,65.60
2018-03-14T07:09:39.103Z,60.60
2018-03-14T07:10:39.068Z,65.70
2018-03-14T07:11:39.069Z,61.90
2018-03-14T07:12:39.032Z,60.90
2018-03-14T07:13:39.016Z,63.20
2018-03-14T07:14:39.010Z,63.20
2018-03-14T07:15:38.977Z,64.80
2018-03-14T07:16:38.959Z,69.30
2018-03-14T07:17:38.943Z,65.90
2018-03-14T07:18:38.923Z,66.50
2018-03-14T07:19:38.917Z,63.70
2018-03-14T07:20:38.882Z,65.70
2018-03-14T07:21:38.862Z,66.40
2018-03-14T07:22:38.843Z,64.00
2018-03-14T07:23:38.827Z,65.10
2018-03-14T07:24:38.831Z,66.00
2018-03-14T07:25:38.791Z,62.80
2018-03-14T07:26:38.773Z,61.20
2018-03-14T07:27:38.754Z,63.50
2018-03-14T07:28:38.737Z,61.00
2018-03-14T07:29:38.714Z,59.90
2018-03-14T07:30:38.714Z,63.50
2018-03-14T07:31:38.679Z,61.90
2018-03-14T07:32:38.663Z,62.60
2018-03-14T07:33:38.645Z,68.20
2018-03-14T07:34:38.630Z,70.60
2018-03-14T07:35:38.620Z,66.30
2018-03-14T07:36:38.585Z,61.40
2018-03-14T07:37:38.568Z,57.80
2018-03-14T07:38:38.573Z,59.30
2018-03-14T07:39:38.532Z,60.30
2018-03-14T07:40:38.512Z,63.00
2018-03-14T07:41:38.500Z,62.80
2018-03-14T07:42:38.483Z,64.10
2018-03-14T07:43:38.467Z,67.90
2018-03-14T07:44:38.500Z,65.00
2018-03-14T07:45:38.427Z,59.60
2018-03-14T07:46:38.407Z,58.30
2018-03-14T07:47:38.391Z,61.90
2018-03-14T07:48:38.373Z,61.40
2018-03-14T07:49:38.365Z,67.20
2018-03-14T07:50:38.334Z,63.70
2018-03-14T07:51:38.317Z,63.40
2018-03-14T07:52:38.357Z,64.80
2018-03-14T07:53:38.290Z,61.70
2018-03-14T07:54:38.264Z,62.10
2018-03-14T07:55:38.241Z,65.90
2018-03-14T07:56:38.226Z,63.20
2018-03-14T07:57:38.210Z,61.40
2018-03-14T07:58:38.206Z,60.70
2018-03-14T07:59:38.173Z,61.40
2018-03-14T08:00:38.152Z,64.80
2018-03-14T08:01:38.136Z,60.00
2018-03-14T08:02:38.120Z,60.20
2018-03-14T08:03:38.116Z,61.30
2018-03-14T08:04:38.080Z,57.20
2018-03-14T08:05:38.063Z,62.40
2018-03-14T08:06:38.064Z,64.90
2018-03-14T08:07:38.050Z,60.30
2018-03-14T08:08:38.024Z,61.90
2018-03-14T08:09:37.994Z,61.80
2018-03-14T08:10:37.975Z,58.90
2018-03-14T08:11:37.961Z,61.90
2018-03-14T08:12:37.943Z,62.10
2018-03-14T08:13:38.058Z,60.20
2018-03-14T08:14:37.922Z,61.90
2018-03-14T08:15:37.898Z,66.10
2018-03-14T08:16:37.872Z,64.30
2018-03-14T08:17:37.850Z,60.40
2018-03-14T08:18:37.832Z,61.50
2018-03-14T08:19:37.813Z,61.00
2018-03-14T08:20:37.815Z,59.60
2018-03-14T08:21:37.780Z,65.90
2018-03-14T08:22:37.764Z,60.10
2018-03-14T08:23:37.743Z,56.90
2018-03-14T08:24:37.725Z,61.50
2018-03-14T08:25:37.727Z,59.70
2018-03-14T08:26:37.691Z,57.00
2018-03-14T08:27:37.674Z,59.50
2018-03-14T08:28:37.668Z,60.40
2018-03-14T08:29:37.638Z,60.70
2018-03-14T08:30:37.701Z,60.80
2018-03-14T08:31:37.619Z,62.80
2018-03-14T08:32:37.588Z,59.00
2018-03-14T08:33:37.563Z,60.20
2018-03-14T08:34:37.562Z,68.70
2018-03-14T08:35:37.528Z,63.60
2018-03-14T08:36:37.511Z,63.40
2018-03-14T08:37:37.512Z,62.80
2018-03-14T08:38:37.478Z,61.00
2018-03-14T08:39:37.457Z,57.80
2018-03-14T08:40:37.439Z,55.80
2018-03-14T08:41:37.428Z,58.80
2018-03-14T08:42:37.419Z,61.20
2018-03-14T08:43:37.387Z,63.20
2018-03-14T08:44:37.367Z,61.90
2018-03-14T08:45:37.353Z,63.20
2018-03-14T08:46:37.337Z,67.10
2018-03-14T08:47:37.331Z,63.90
2018-03-14T08:48:37.301Z,65.20
2018-03-14T08:49:37.279Z,64.80
2018-03-14T08:50:37.268Z,64.70
2018-03-14T08:51:37.246Z,62.20
2018-03-14T08:52:37.266Z,67.00
2018-03-14T08:53:37.221Z,64.40
2018-03-14T08:54:37.192Z,61.10
2018-03-14T08:55:37.174Z,58.90
2018-03-14T08:56:37.159Z,54.30
2018-03-14T08:57:37.142Z,54.40
2018-03-14T08:58:37.156Z,58.90
2018-03-14T08:59:37.108Z,55.90
2018-03-14T09:00:37.095Z,48.20
2018-03-14T09:01:37.073Z,48.90
2018-03-14T09:02:37.055Z,49.60
2018-03-14T09:03:37.038Z,43.40
2018-03-14T09:04:37.036Z,43.80
2018-03-14T09:05:37.002Z,46.00
2018-03-14T09:06:36.987Z,46.00
2018-03-14T09:07:36.966Z,44.60
2018-03-14T09:08:36.971Z,44.10
2018-03-14T09:09:36.929Z,46.70
2018-03-14T09:10:36.921Z,45.40
2018-03-14T09:11:36.905Z,47.50
2018-03-14T09:12:36.883Z,43.70
2018-03-14T09:13:36.886Z,46.70
2018-03-14T09:14:36.871Z,47.00
2018-03-14T09:15:36.836Z,47.60
2018-03-14T09:16:36.822Z,46.60
2018-03-14T09:17:36.805Z,47.20
2018-03-14T09:18:36.795Z,46.30
2018-03-14T09:19:36.789Z,48.10
2018-03-14T09:20:36.760Z,42.90
2018-03-14T09:21:36.743Z,42.00
2018-03-14T09:22:36.742Z,40.70
2018-03-14T09:23:36.708Z,42.90
2018-03-14T09:24:36.716Z,41.90
2018-03-14T09:25:36.680Z,37.40
2018-03-14T09:26:36.672Z,39.70
2018-03-14T09:27:36.706Z,38.40
2018-03-14T09:28:36.641Z,38.40
2018-03-14T09:29:36.641Z,36.60
2018-03-14T09:30:36.622Z,35.40
2018-03-14T09:31:36.601Z,34.60
2018-03-14T09:32:36.592Z,34.30
2018-03-14T09:33:36.566Z,31.60
2018-03-14T09:34:36.564Z,34.90
2018-03-14T09:35:36.535Z,32.40
2018-03-14T09:36:36.528Z,33.40
2018-03-14T09:37:36.515Z,33.30
2018-03-14T09:38:36.490Z,30.40
2018-03-14T09:39:36.485Z,31.80
2018-03-14T09:40:36.508Z,31.10
2018-03-14T09:41:36.454Z,31.80
2018-03-14T09:42:36.435Z,31.30
2018-03-14T09:43:36.422Z,29.10
2018-03-14T09:44:36.413Z,29.40
2018-03-14T09:45:36.396Z,28.20
2018-03-14T09:46:36.403Z,27.10
2018-03-14T09:47:36.368Z,27.90
2018-03-14T09:48:36.355Z,26.60
2018-03-14T09:49:36.346Z,25.70
2018-03-14T09:50:36.346Z,23.50
2018-03-14T09:51:36.321Z,15.90
2018-03-14T09:52:36.328Z,15.10
2018-03-14T09:53:36.307Z,15.70
2018-03-14T09:54:36.285Z,16.50
2018-03-14T09:55:36.271Z,19.10
2018-03-14T09:56:36.264Z,19.10
2018-03-14T09:57:36.273Z,17.70
2018-03-14T09:58:36.243Z,17.50
2018-03-14T09:59:36.225Z,17.90
2018-03-14T10:00:36.220Z,17.60
2018-03-14T10:01:36.211Z,18.00
2018-03-14T10:02:36.219Z,17.50
2018-03-14T10:03:36.189Z,13.90
2018-03-14T10:04:36.181Z,13.50
2018-03-14T10:05:36.172Z,14.40
2018-03-14T10:06:36.166Z,13.90
2018-03-14T10:07:36.203Z,14.70
2018-03-14T10:08:36.143Z,15.90
2018-03-14T10:09:36.134Z,16.10
2018-03-14T10:10:36.120Z,15.20
2018-03-14T10:11:36.115Z,15.80
2018-03-14T10:12:36.102Z,14.20
2018-03-14T10:13:36.110Z,15.70
2018-03-14T10:14:36.090Z,14.60
2018-03-14T10:15:36.128Z,16.40
2018-03-14T10:16:36.071Z,16.50
2018-03-14T10:17:36.056Z,18.00
2018-03-14T10:18:36.050Z,18.90
2018-03-14T10:19:36.056Z,19.40
2018-03-14T10:20:36.030Z,18.00
2018-03-14T10:21:36.030Z,17.10
2018-03-14T10:22:36.010Z,16.70
2018-03-14T10:23:36.002Z,16.60
2018-03-14T10:24:36.017Z,18.00
2018-03-14T10:25:36.001Z,17.00
2018-03-14T10:26:35.988Z,19.20
2018-03-14T10:27:35.979Z,17.80
2018-03-14T10:28:35.967Z,17.60
2018-03-14T10:29:35.978Z,18.10
2018-03-14T10:30:35.954Z,18.50
2018-03-14T10:31:37.705Z,17.40
2018-03-14T10:32:35.939Z,17.30
2018-03-14T10:33:35.931Z,17.50
2018-03-14T10:34:35.947Z,15.90
2018-03-14T10:35:35.918Z,16.70
2018-03-14T10:36:35.914Z,16.10
2018-03-14T10:37:35.897Z,19.10
2018-03-14T10:38:35.899Z,17.00
2018-03-14T10:39:35.888Z,16.30
2018-03-14T10:40:35.897Z,16.30
2018-03-14T10:41:35.870Z,15.40
2018-03-14T10:42:35.866Z,14.80
2018-03-14T10:43:35.860Z,16.10
2018-03-14T10:44:35.849Z,15.70
2018-03-14T10:45:35.845Z,16.00
2018-03-14T10:46:35.866Z,14.80
2018-03-14T10:47:35.829Z,14.90
2018-03-14T10:48:36.776Z,15.40
2018-03-14T10:49:35.816Z,15.90
2018-03-14T10:50:35.906Z,16.70
2018-03-14T10:51:35.797Z,14.80
2018-03-14T10:52:35.812Z,14.50
2018-03-14T10:53:35.778Z,15.10
2018-03-14T10:54:35.775Z,14.60
2018-03-14T10:55:35.781Z,13.40
2018-03-14T10:56:35.758Z,14.60
2018-03-14T10:57:35.771Z,13.90
2018-03-14T10:58:35.776Z,15.20
2018-03-14T10:59:35.740Z,14.60
2018-03-14T11:00:35.734Z,13.80
2018-03-14T11:01:35.724Z,14.90
2018-03-14T11:02:35.732Z,14.60
2018-03-14T11:03:35.713Z,14.40
2018-03-14T11:04:35.707Z,14.80
2018-03-14T11:05:35.701Z,14.60
2018-03-14T11:06:35.710Z,15.10
2018-03-14T11:07:35.699Z,15.10
2018-03-14T11:08:35.696Z,13.50
2018-03-14T11:09:35.670Z,16.60
2018-03-14T11:10:35.671Z,13.60
2018-03-14T11:11:35.661Z,14.00
2018-03-14T11:12:35.652Z,13.00
2018-03-14T11:13:35.664Z,12.90
2018-03-14T11:14:35.639Z,12.30
2018-03-14T11:15:35.652Z,11.80
2018-03-14T11:16:35.647Z,11.30
2018-03-14T11:17:35.618Z,9.70
2018-03-14T11:18:35.635Z,10.50
2018-03-14T11:19:35.620Z,9.50
2018-03-14T11:20:35.613Z,6.60
2018-03-14T11:21:35.642Z,6.50
2018-03-14T11:22:35.603Z,6.20
2018-03-14T11:23:35.595Z,8.50
2018-03-14T11:24:35.607Z,8.90
2018-03-14T11:25:35.613Z,11.50
2018-03-14T11:26:35.581Z,9.30
2018-03-14T11:27:36.220Z,9.10
2018-03-14T11:28:35.577Z,8.00
2018-03-14T11:29:35.582Z,8.00
2018-03-14T11:30:35.556Z,7.90
2018-03-14T11:31:35.553Z,7.10
2018-03-14T11:32:35.552Z,5.50
2018-03-14T11:33:35.546Z,5.00
2018-03-14T11:34:35.542Z,6.90
2018-03-14T11:35:35.552Z,7.60
2018-03-14T11:36:35.536Z,8.60
2018-03-14T11:37:35.524Z,9.50
2018-03-14T11:38:35.524Z,7.50
2018-03-14T11:39:35.517Z,9.00
2018-03-14T11:40:35.528Z,9.10
2018-03-14T11:41:35.514Z,10.20
2018-03-14T11:42:35.508Z,9.70
2018-03-14T11:43:35.515Z,10.00
2018-03-14T11:44:35.507Z,10.50
2018-03-14T11:45:35.530Z,9.10
2018-03-14T11:46:35.504Z,10.00
2018-03-14T11:47:35.486Z,8.40
2018-03-14T11:48:35.486Z,10.60
2018-03-14T11:49:35.476Z,10.20
2018-03-14T11:50:35.476Z,11.30
2018-03-14T11:51:35.485Z,10.20
2018-03-14T11:52:35.466Z,9.70
2018-03-14T11:53:35.465Z,9.10
2018-03-14T11:54:35.475Z,8.40
2018-03-14T11:55:35.457Z,8.60
2018-03-14T11:56:35.468Z,8.30
2018-03-14T11:57:35.447Z,8.90
2018-03-14T11:58:35.449Z,8.20
2018-03-14T11:59:35.445Z,8.90
2018-03-14T12:00:35.450Z,9.80
2018-03-14T12:01:35.430Z,10.10
2018-03-14T12:02:35.451Z,10.10
2018-03-14T12:03:35.423Z,10.40
2018-03-14T12:04:35.417Z,11.20
2018-03-14T12:05:35.416Z,11.00
2018-03-14T12:06:35.410Z,11.00
2018-03-14T12:07:35.418Z,11.00
2018-03-14T12:08:35.402Z,10.50
2018-03-14T12:09:35.396Z,10.60
2018-03-14T12:10:35.404Z,11.50
2018-03-14T12:11:35.394Z,9.60
2018-03-14T12:12:35.407Z,9.50
2018-03-14T12:13:35.373Z,9.30
2018-03-14T12:14:35.380Z,10.10
2018-03-14T12:15:35.370Z,8.80
2018-03-14T12:16:35.391Z,9.90
2018-03-14T12:17:35.363Z,9.60
2018-03-14T12:18:35.397Z,9.20
2018-03-14T12:19:35.371Z,8.80
2018-03-14T12:20:35.352Z,8.70
2018-03-14T12:21:35.366Z,9.10
2018-03-14T12:22:35.345Z,11.50
2018-03-14T12:23:35.406Z,10.10
2018-03-14T12:24:35.339Z,10.30
2018-03-14T12:25:36.242Z,10.10
2018-03-14T12:26:35.336Z,10.00
2018-03-14T12:27:35.337Z,9.70
2018-03-14T12:28:35.327Z,9.70
2018-03-14T12:29:35.329Z,9.40
2018-03-14T12:30:35.341Z,9.60
2018-03-14T12:31:35.315Z,10.40
2018-03-14T12:32:35.316Z,9.90
2018-03-14T12:33:35.315Z,8.80
2018-03-14T12:34:35.313Z,9.00
2018-03-14T12:35:35.330Z,8.30
2018-03-14T12:36:35.306Z,8.40
2018-03-14T12:37:35.301Z,10.10
2018-03-14T12:38:35.296Z,9.60
2018-03-14T12:39:35.297Z,9.30
2018-03-14T12:40:35.307Z,10.40
2018-03-14T12:41:35.307Z,10.90
2018-03-14T12:42:35.301Z,9.10
2018-03-14T12:43:35.293Z,10.60
2018-03-14T12:44:35.280Z,9.50
2018-03-14T12:45:35.279Z,9.10
2018-03-14T12:46:35.279Z,8.70
2018-03-14T12:47:35.292Z,8.70
2018-03-14T12:48:35.273Z,8.50
2018-03-14T12:49:35.270Z,9.60
2018-03-14T12:50:35.266Z,8.40
2018-03-14T12:51:35.285Z,9.40
2018-03-14T12:52:35.263Z,7.80
2018-03-14T12:53:35.260Z,8.50
2018-03-14T12:54:35.260Z,8.20